Flight Track Log - Related Links

Times and Time Zones

All times are in EDT time to prevent confusion due to time zone crossing. See the CRQ101 flight status page for this flight to view local times or setup timezone preferences in your user account.

Time Position Orientation Groundspeed Altitude Reporting Facility
EDT Latitude Longitude Course Direction KTS MPH feet Rate Location/Type
Wed 10:15:49 AM 46.7667 -74.4167 193° South 220 253 20,000  Level Montreal Center
Wed 10:16:49 AM 46.7167 -74.4333 193° South 210 242 20,000  Level Montreal Center
Wed 10:17:49 AM 46.6500 -74.4333 180° South 220 253 20,000 -50 Level Montreal Center
Wed 10:18:49 AM 46.6000 -74.4333 180° South 220 253 19,900  Descending Montreal Center
Wed 10:19:49 AM 46.5333 -74.4333 180° South 220 253 20,000 50 Climbing Montreal Center
Wed 10:20:49 AM 46.4667 -74.4500 190° South 220 253 20,000 -50 Level Montreal Center
Wed 10:21:49 AM 46.4167 -74.4667 193° South 220 253 19,900 -400 Descending Montreal Center
Wed 10:22:49 AM 46.3500 -74.4667 180° South 220 253 19,200 -1,100 Descending Montreal Center
Wed 10:23:49 AM 46.2833 -74.4667 180° South 240 276 17,700 -1,550 Descending Montreal Center
Wed 10:24:49 AM 46.2167 -74.4667 180° South 250 288 16,100 -1,500 Descending Montreal Center
Wed 10:25:49 AM 46.1500 -74.4833 190° South 250 288 14,700 -1,250 Descending Montreal Center
Wed 10:26:49 AM 46.0667 -74.5000 188° South 250 288 13,600 -1,200 Descending Montreal Center
Wed 10:27:49 AM 46.0167 -74.4500 145° Southeast 250 288 12,300 -1,300 Descending Montreal Center
Wed 10:28:49 AM 45.9500 -74.4000 152° Southeast 250 288 11,000 -1,250 Descending Montreal Center
Wed 10:29:49 AM 45.9000 -74.3333 137° Southeast 250 288 9,800 -1,091 Descending Montreal Center
Wed 10:30:50 AM 45.8500 -74.2667 137° Southeast 250 288 8,800 -1,091 Descending Montreal Center
Wed 10:31:50 AM 45.8000 -74.2167 145° Southeast 240 276 7,600 -1,050 Descending Montreal Center
Wed 10:32:50 AM 45.7500 -74.1500 137° Southeast 240 276 6,700 -800 Descending Montreal Center
Wed 10:33:50 AM 45.7167 -74.0500 115° Southeast 240 276 6,000 -350 Descending Montreal Center
Wed 10:34:50 AM 45.6667 -73.9833 137° Southeast 230 265 6,000  Level Montreal Center
Wed 10:35:50 AM 45.6500 -73.9000 106° East 220 253 6,000 -655 Level Montreal Center
Wed 10:36:49 AM 45.6167 -73.8167 120° Southeast 230 265 4,700 -1,361 Descending Montreal Center
Wed 10:37:49 AM 45.6333 -73.7333 74° East 230 265 3,300 -1,200 Descending Montreal Center
Wed 10:38:49 AM 45.6167 -73.6500 106° East 210 242 2,300 -650 Descending Montreal Center
Wed 10:39:49 AM 45.6000 -73.6000 115° Southeast 180 207 2,000 -100 Descending Montreal Center
Wed 10:40:49 AM 45.5500 -73.6000 180° South 160 184 2,100 -200 Climbing Montreal Center
Wed 10:41:49 AM 45.5167 -73.6167 199° South 150 173 1,600 -550 Descending Montreal Center
Wed 10:42:49 AM 45.5000 -73.6667 245° Southwest 140 161 1,000 -600 Descending Montreal Center
Wed 10:43:49 AM 45.4667 -73.7000 215° Southwest 120 138 400 -600 Descending Montreal Center

Login

Don't have an account? Register now (free) for customized features, flight alerts, and more!